createdAt,value
2022-09-30T00:00:08.701Z,3.00
2022-09-30T00:02:36.178Z,3.40
2022-09-30T00:05:03.622Z,2.83
2022-09-30T00:07:31.168Z,3.30
2022-09-30T00:09:58.794Z,4.00
2022-09-30T00:12:27.614Z,3.65
2022-09-30T00:14:55.214Z,3.88
2022-09-30T00:17:22.861Z,3.60
2022-09-30T00:19:50.242Z,3.55
2022-09-30T00:22:17.800Z,3.28
2022-09-30T00:24:46.898Z,3.42
2022-09-30T00:27:18.430Z,4.07
2022-09-30T00:29:46.622Z,3.95
2022-09-30T00:32:14.245Z,3.90
2022-09-30T00:34:41.954Z,4.28
2022-09-30T00:37:11.979Z,4.32
2022-09-30T00:39:39.390Z,3.47
2022-09-30T00:42:08.663Z,3.60
2022-09-30T00:44:51.257Z,3.35
2022-09-30T00:47:19.032Z,3.65
2022-09-30T00:49:46.666Z,3.70
2022-09-30T00:52:14.451Z,4.30
2022-09-30T00:54:42.013Z,3.83
2022-09-30T00:57:10.077Z,4.20
2022-09-30T00:59:44.184Z,3.58
2022-09-30T01:02:14.138Z,4.25
2022-09-30T01:04:42.608Z,3.80
2022-09-30T01:07:11.044Z,4.68
2022-09-30T01:09:40.579Z,4.00
2022-09-30T01:12:13.923Z,3.60
2022-09-30T01:14:42.273Z,4.13
2022-09-30T01:17:26.241Z,4.40
2022-09-30T01:20:12.775Z,3.40
2022-09-30T01:22:52.865Z,4.32
2022-09-30T01:25:35.094Z,3.78
2022-09-30T01:28:21.092Z,4.13
2022-09-30T01:30:48.632Z,4.35
2022-09-30T01:33:26.058Z,4.03
2022-09-30T01:36:04.534Z,4.47
2022-09-30T01:38:37.653Z,3.92
2022-09-30T01:41:08.039Z,4.88
2022-09-30T01:43:41.693Z,4.45
2022-09-30T01:46:15.563Z,4.32
2022-09-30T01:48:58.978Z,4.05
2022-09-30T01:51:31.742Z,5.05
2022-09-30T01:54:02.069Z,3.72
2022-09-30T01:56:50.889Z,3.90
2022-09-30T01:59:23.248Z,3.90
2022-09-30T02:01:54.482Z,3.90
2022-09-30T02:04:25.462Z,3.22
2022-09-30T02:06:55.196Z,3.42
2022-09-30T02:09:25.070Z,3.42
2022-09-30T02:11:55.317Z,4.05
2022-09-30T02:14:28.865Z,3.78
2022-09-30T02:17:08.804Z,4.30
2022-09-30T02:19:37.330Z,4.22
2022-09-30T02:22:28.032Z,4.28
2022-09-30T02:25:01.737Z,3.67
2022-09-30T02:27:42.654Z,4.38
2022-09-30T02:30:14.115Z,3.75
2022-09-30T02:32:52.791Z,4.50
2022-09-30T02:35:24.299Z,3.80
2022-09-30T02:38:05.651Z,3.72
2022-09-30T02:40:48.592Z,3.95
2022-09-30T02:43:16.780Z,4.05
2022-09-30T02:45:50.383Z,3.50
2022-09-30T02:48:27.796Z,3.50
2022-09-30T02:51:04.336Z,3.85
2022-09-30T02:53:47.139Z,3.70
2022-09-30T02:56:23.672Z,3.72
2022-09-30T02:58:52.716Z,3.42
2022-09-30T03:01:20.398Z,3.10
2022-09-30T03:03:50.938Z,3.55
2022-09-30T03:06:19.575Z,3.53
2022-09-30T03:08:47.081Z,3.25
2022-09-30T03:11:17.878Z,3.20
2022-09-30T03:14:05.509Z,3.40
2022-09-30T03:16:48.159Z,3.22
2022-09-30T03:19:24.705Z,3.40
2022-09-30T03:22:07.865Z,3.47
2022-09-30T03:24:54.135Z,4.38
2022-09-30T03:27:31.538Z,3.80
2022-09-30T03:30:16.300Z,3.53
2022-09-30T03:33:02.743Z,3.97
2022-09-30T03:35:39.122Z,4.15
2022-09-30T03:38:14.346Z,4.43
2022-09-30T03:43:18.801Z,4.18
2022-09-30T03:45:56.382Z,3.95
2022-09-30T03:48:25.193Z,4.03
2022-09-30T03:50:53.172Z,4.60
2022-09-30T03:53:21.492Z,4.13
2022-09-30T03:55:53.063Z,4.65
2022-09-30T03:58:22.391Z,4.50
2022-09-30T04:00:54.454Z,4.18
2022-09-30T04:03:23.101Z,4.78
2022-09-30T04:05:50.939Z,4.60
2022-09-30T04:08:18.547Z,4.95
2022-09-30T04:10:46.124Z,4.90
2022-09-30T04:13:13.892Z,4.13
2022-09-30T04:15:41.854Z,4.60
2022-09-30T04:18:09.379Z,4.90
2022-09-30T04:20:36.854Z,4.68
2022-09-30T04:23:04.487Z,4.53
2022-09-30T04:25:31.860Z,4.47
2022-09-30T04:27:59.195Z,4.38
2022-09-30T04:30:31.237Z,4.38
2022-09-30T04:33:00.812Z,4.47
2022-09-30T04:35:30.400Z,4.60
2022-09-30T04:37:57.785Z,3.53
2022-09-30T04:40:25.843Z,3.75
2022-09-30T04:42:57.203Z,4.30
2022-09-30T04:45:25.275Z,3.67
2022-09-30T04:47:52.649Z,3.83
2022-09-30T04:50:20.048Z,4.90
2022-09-30T04:52:48.036Z,5.05
2022-09-30T04:55:15.595Z,5.60
2022-09-30T04:57:46.313Z,4.47
2022-09-30T05:00:13.852Z,5.22
2022-09-30T05:02:43.892Z,4.90
2022-09-30T05:05:11.722Z,4.47
2022-09-30T05:07:39.075Z,5.00
2022-09-30T05:10:07.865Z,5.15
2022-09-30T05:12:35.828Z,4.78
2022-09-30T05:15:03.320Z,5.10
2022-09-30T05:17:31.442Z,5.00
2022-09-30T05:19:59.807Z,4.50
2022-09-30T05:22:28.171Z,4.22
2022-09-30T05:24:58.570Z,4.57
2022-09-30T05:27:26.054Z,4.30
2022-09-30T05:29:53.511Z,4.72
2022-09-30T05:32:25.880Z,4.68
2022-09-30T05:34:55.510Z,4.38
2022-09-30T05:37:23.072Z,3.90
2022-09-30T05:39:50.660Z,4.35
2022-09-30T05:42:18.303Z,3.88
2022-09-30T05:44:46.625Z,4.40
2022-09-30T05:47:13.972Z,4.93
2022-09-30T05:49:41.967Z,4.80
2022-09-30T05:52:09.687Z,5.75
2022-09-30T05:54:37.023Z,5.45
2022-09-30T05:57:04.401Z,7.43
2022-09-30T05:59:31.860Z,4.45
2022-09-30T06:01:59.389Z,7.47
2022-09-30T06:04:26.806Z,4.60
2022-09-30T06:06:54.208Z,4.97
2022-09-30T06:09:21.695Z,5.05
2022-09-30T06:11:49.272Z,4.70
2022-09-30T06:14:20.131Z,4.80
2022-09-30T06:16:48.598Z,4.72
2022-09-30T06:19:16.070Z,4.82
2022-09-30T06:21:43.784Z,5.15
2022-09-30T06:24:13.415Z,5.85
2022-09-30T06:26:42.565Z,6.35
2022-09-30T06:29:09.963Z,6.22
2022-09-30T06:31:37.654Z,5.07
2022-09-30T06:34:05.716Z,5.80
2022-09-30T06:36:33.649Z,5.60
2022-09-30T06:39:06.539Z,6.10
2022-09-30T06:41:40.000Z,5.80
2022-09-30T06:44:07.537Z,5.97
2022-09-30T06:46:41.095Z,5.90
2022-09-30T06:49:13.899Z,5.80
2022-09-30T06:51:42.555Z,5.07
2022-09-30T06:54:10.346Z,5.18
2022-09-30T06:56:37.691Z,4.65
2022-09-30T06:59:05.226Z,5.32
2022-09-30T07:01:32.557Z,5.22
2022-09-30T07:04:01.081Z,4.90
2022-09-30T07:06:28.736Z,5.35
2022-09-30T07:08:57.223Z,5.55
2022-09-30T07:11:24.978Z,4.80
2022-09-30T07:13:52.519Z,4.93
2022-09-30T07:16:21.571Z,4.53
2022-09-30T07:18:49.165Z,5.15
2022-09-30T07:21:16.831Z,4.60
2022-09-30T07:23:49.099Z,4.47
2022-09-30T07:26:17.144Z,4.53
2022-09-30T07:28:45.279Z,4.82
2022-09-30T07:31:33.738Z,4.15
2022-09-30T07:34:17.968Z,4.70
2022-09-30T07:36:49.920Z,4.43
2022-09-30T07:39:36.269Z,4.20
2022-09-30T07:42:16.059Z,4.40
2022-09-30T07:45:07.612Z,3.80
2022-09-30T07:47:40.289Z,4.05
2022-09-30T07:50:11.930Z,3.10
2022-09-30T07:52:39.467Z,4.75
2022-09-30T07:55:10.535Z,4.00
2022-09-30T07:57:41.284Z,3.90
2022-09-30T08:00:37.418Z,3.90
2022-09-30T08:02:56.446Z,3.90
2022-09-30T08:05:23.808Z,3.60
2022-09-30T08:07:51.215Z,3.80
2022-09-30T08:12:47.369Z,3.08
2022-09-30T08:15:14.981Z,3.80
2022-09-30T08:17:42.320Z,3.08
2022-09-30T08:20:13.739Z,3.20
2022-09-30T08:22:42.429Z,3.55
2022-09-30T08:25:12.127Z,4.00
2022-09-30T08:27:39.632Z,3.42
2022-09-30T08:30:07.281Z,4.15
2022-09-30T08:32:34.743Z,5.10
2022-09-30T08:35:02.182Z,4.35
2022-09-30T08:37:29.530Z,4.25
2022-09-30T08:39:56.949Z,3.92
2022-09-30T08:42:36.758Z,4.03
2022-09-30T08:45:20.983Z,3.72
2022-09-30T08:47:59.849Z,3.65
2022-09-30T08:50:47.814Z,3.47
2022-09-30T08:53:35.616Z,3.47
2022-09-30T08:56:04.056Z,4.07
2022-09-30T08:58:36.668Z,3.72
2022-09-30T09:01:07.263Z,4.15
2022-09-30T09:03:34.945Z,3.95
2022-09-30T09:06:12.157Z,4.03
2022-09-30T09:08:42.435Z,4.18
2022-09-30T09:11:10.311Z,3.92
2022-09-30T09:13:43.574Z,3.95
2022-09-30T09:16:11.095Z,3.58
2022-09-30T09:18:41.645Z,3.25
2022-09-30T09:21:20.119Z,3.65
2022-09-30T09:23:47.996Z,2.92
2022-09-30T09:26:16.434Z,3.30
2022-09-30T09:28:43.991Z,3.10
2022-09-30T09:31:17.415Z,3.35
2022-09-30T09:33:45.040Z,3.10
2022-09-30T09:36:30.895Z,3.30
2022-09-30T09:39:01.193Z,3.00
2022-09-30T09:41:32.711Z,3.22
2022-09-30T09:44:00.595Z,3.10
2022-09-30T09:46:48.107Z,2.90
2022-09-30T09:49:20.917Z,3.10
2022-09-30T09:51:48.338Z,2.88
2022-09-30T09:54:19.099Z,3.50
2022-09-30T09:56:46.573Z,3.67
2022-09-30T09:59:19.912Z,3.55
2022-09-30T10:01:50.568Z,3.15
2022-09-30T10:04:22.199Z,3.00
2022-09-30T10:06:51.812Z,3.22
2022-09-30T10:09:27.145Z,3.50
2022-09-30T10:12:06.922Z,3.55
2022-09-30T10:14:35.473Z,2.95
2022-09-30T10:17:03.764Z,2.90
2022-09-30T10:19:35.504Z,2.78
2022-09-30T10:22:08.732Z,4.22
2022-09-30T10:24:37.419Z,3.10
2022-09-30T10:27:04.965Z,3.65
2022-09-30T10:29:33.860Z,3.80
2022-09-30T10:32:05.621Z,3.40
2022-09-30T10:34:34.654Z,3.65
2022-09-30T10:37:22.416Z,3.25
2022-09-30T10:39:59.446Z,3.45
2022-09-30T10:42:29.046Z,3.08
2022-09-30T10:44:56.687Z,3.80
2022-09-30T10:47:36.273Z,2.60
2022-09-30T10:50:07.716Z,2.65
2022-09-30T10:52:37.450Z,2.47
2022-09-30T10:55:15.783Z,2.80
2022-09-30T10:57:46.842Z,2.88
2022-09-30T11:00:24.130Z,2.80
2022-09-30T11:02:56.562Z,2.10
2022-09-30T11:05:25.193Z,2.35
2022-09-30T11:08:02.074Z,2.22
2022-09-30T11:10:34.676Z,1.80
2022-09-30T11:13:02.103Z,2.08
2022-09-30T11:15:31.535Z,2.55
2022-09-30T11:18:19.859Z,2.20
2022-09-30T11:20:51.862Z,2.40
2022-09-30T11:23:22.237Z,2.55
2022-09-30T11:26:08.930Z,2.50
2022-09-30T11:28:36.610Z,2.45
2022-09-30T11:31:22.895Z,2.85
2022-09-30T11:33:53.546Z,2.70
2022-09-30T11:36:21.091Z,2.30
2022-09-30T11:38:57.607Z,3.10
2022-09-30T11:41:25.854Z,2.38
2022-09-30T11:43:53.636Z,2.30
2022-09-30T11:46:30.543Z,1.98
2022-09-30T11:49:04.247Z,3.10
2022-09-30T11:51:50.875Z,2.35
2022-09-30T11:54:18.282Z,2.75
2022-09-30T11:57:01.271Z,2.70
2022-09-30T11:59:37.863Z,2.75
2022-09-30T12:02:05.854Z,2.80
2022-09-30T12:04:36.330Z,3.10
2022-09-30T12:07:11.289Z,2.30
2022-09-30T12:09:41.701Z,3.00
2022-09-30T12:12:16.036Z,2.25
2022-09-30T12:14:53.780Z,2.60
2022-09-30T12:17:21.353Z,2.30
2022-09-30T12:19:51.313Z,1.50
2022-09-30T12:22:24.405Z,1.10
2022-09-30T12:24:51.661Z,1.33
2022-09-30T12:27:34.514Z,1.33
2022-09-30T12:30:18.785Z,1.63
2022-09-30T12:33:05.974Z,1.27
2022-09-30T12:35:52.444Z,1.38
2022-09-30T12:38:36.167Z,1.88
2022-09-30T12:41:03.627Z,1.80
2022-09-30T12:43:43.048Z,1.13
2022-09-30T12:46:33.779Z,0.73
2022-09-30T12:49:03.959Z,1.05
2022-09-30T12:51:32.854Z,2.17
2022-09-30T12:54:05.903Z,1.20
2022-09-30T12:56:34.355Z,1.13
2022-09-30T12:59:02.022Z,0.90
2022-09-30T13:01:31.305Z,1.55
2022-09-30T13:04:01.547Z,1.77
2022-09-30T13:06:47.732Z,1.58
2022-09-30T13:09:20.811Z,1.40
2022-09-30T13:12:13.882Z,2.13
2022-09-30T13:14:44.586Z,1.30
2022-09-30T13:17:12.104Z,1.58
2022-09-30T13:19:42.598Z,1.55
2022-09-30T13:22:22.984Z,1.20
2022-09-30T13:25:05.553Z,1.10
2022-09-30T13:27:36.398Z,1.10
2022-09-30T13:30:16.103Z,1.05
2022-09-30T13:32:46.300Z,1.13
2022-09-30T13:35:32.874Z,1.00
2022-09-30T13:38:15.533Z,0.90
2022-09-30T13:41:05.426Z,0.85
2022-09-30T13:43:35.942Z,0.90
2022-09-30T13:46:13.475Z,1.17
2022-09-30T13:48:43.604Z,1.20
2022-09-30T13:51:15.622Z,0.95
2022-09-30T13:53:46.463Z,0.98
2022-09-30T13:56:21.560Z,1.10
2022-09-30T14:01:26.414Z,1.20
2022-09-30T14:04:07.197Z,1.10
2022-09-30T14:06:57.929Z,1.10
2022-09-30T14:09:38.950Z,1.65
2022-09-30T14:12:23.291Z,1.15
2022-09-30T14:15:04.484Z,1.35
2022-09-30T14:17:34.768Z,1.30
2022-09-30T14:20:07.501Z,1.30
2022-09-30T14:22:37.093Z,1.10
2022-09-30T14:25:05.222Z,1.50
2022-09-30T14:27:45.548Z,1.40
2022-09-30T14:30:34.670Z,1.50
2022-09-30T14:33:03.440Z,1.45
2022-09-30T14:35:34.761Z,1.30
2022-09-30T14:38:03.813Z,1.50
2022-09-30T14:40:32.556Z,1.35
2022-09-30T14:43:02.883Z,1.35
2022-09-30T14:45:32.098Z,1.60
2022-09-30T14:48:06.872Z,1.30
2022-09-30T14:51:13.678Z,1.30
2022-09-30T14:54:22.010Z,1.77
2022-09-30T14:56:57.054Z,1.30
2022-09-30T14:59:33.408Z,1.60
2022-09-30T15:02:03.622Z,1.23
2022-09-30T15:04:32.593Z,1.55
2022-09-30T15:07:01.450Z,1.20
2022-09-30T15:09:46.558Z,1.50
2022-09-30T15:12:19.535Z,2.20
2022-09-30T15:14:50.077Z,1.60
2022-09-30T15:17:21.882Z,1.50
2022-09-30T15:19:51.131Z,1.58
2022-09-30T15:22:19.343Z,1.20
2022-09-30T15:24:48.479Z,2.30
2022-09-30T15:27:26.735Z,1.75
2022-09-30T15:29:57.839Z,1.58
2022-09-30T15:32:26.735Z,2.10
2022-09-30T15:34:58.755Z,1.50
2022-09-30T15:37:33.897Z,1.80
2022-09-30T15:40:21.524Z,1.70
2022-09-30T15:42:59.834Z,1.92
2022-09-30T15:45:35.051Z,2.60
2022-09-30T15:48:03.104Z,1.70
2022-09-30T15:50:39.763Z,2.45
2022-09-30T15:53:24.913Z,1.65
2022-09-30T15:58:33.996Z,2.05
2022-09-30T16:01:24.546Z,1.70
2022-09-30T16:03:57.020Z,1.42
2022-09-30T16:06:29.690Z,2.20
2022-09-30T16:09:02.327Z,1.70
2022-09-30T16:11:34.979Z,2.47
2022-09-30T16:14:03.265Z,1.63
2022-09-30T16:16:32.436Z,1.67
2022-09-30T16:19:01.586Z,1.55
2022-09-30T16:21:50.601Z,1.95
2022-09-30T16:24:38.503Z,2.00
2022-09-30T16:27:21.190Z,1.55
2022-09-30T16:29:48.704Z,1.40
2022-09-30T16:32:17.075Z,2.80
2022-09-30T16:34:52.355Z,1.42
2022-09-30T16:40:11.413Z,1.50
2022-09-30T16:42:40.687Z,1.88
2022-09-30T16:45:15.464Z,1.70
2022-09-30T16:47:43.984Z,1.80
2022-09-30T16:50:24.106Z,1.45
2022-09-30T16:52:51.783Z,1.50
2022-09-30T16:55:19.481Z,1.60
2022-09-30T16:57:47.167Z,1.60
2022-09-30T17:00:18.634Z,1.60
2022-09-30T17:02:49.012Z,1.60
2022-09-30T17:05:20.605Z,1.77
2022-09-30T17:07:52.794Z,2.22
2022-09-30T17:10:25.196Z,2.05
2022-09-30T17:12:54.345Z,1.88
2022-09-30T17:15:24.604Z,1.58
2022-09-30T17:17:57.073Z,1.52
2022-09-30T17:20:26.237Z,1.60
2022-09-30T17:22:54.245Z,1.50
2022-09-30T17:25:22.281Z,1.83
2022-09-30T17:27:54.648Z,1.52
2022-09-30T17:30:23.463Z,1.65
2022-09-30T17:32:51.418Z,1.60
2022-09-30T17:35:24.147Z,1.70
2022-09-30T17:37:56.468Z,2.17
2022-09-30T17:40:44.933Z,1.92
2022-09-30T17:43:15.190Z,2.03
2022-09-30T17:45:44.207Z,2.58
2022-09-30T17:48:12.065Z,2.05
2022-09-30T17:50:40.918Z,4.00
2022-09-30T17:53:08.480Z,4.35
2022-09-30T17:55:36.141Z,3.28
2022-09-30T17:58:03.621Z,3.85
2022-09-30T18:00:31.607Z,4.00
2022-09-30T18:02:59.684Z,4.18
2022-09-30T18:05:27.609Z,3.45
2022-09-30T18:07:55.236Z,4.35
2022-09-30T18:10:22.656Z,4.63
2022-09-30T18:12:52.002Z,4.45
2022-09-30T18:15:20.800Z,5.53
2022-09-30T18:17:48.228Z,6.10
2022-09-30T18:20:15.753Z,5.88
2022-09-30T18:22:43.150Z,6.65
2022-09-30T18:25:20.156Z,5.03
2022-09-30T18:28:00.465Z,5.38
2022-09-30T18:30:28.234Z,5.63
2022-09-30T18:32:57.426Z,7.07
2022-09-30T18:35:25.541Z,8.98
2022-09-30T18:37:53.909Z,7.28
2022-09-30T18:40:23.208Z,7.32
2022-09-30T18:42:55.711Z,6.45
2022-09-30T18:45:24.280Z,6.43
2022-09-30T18:47:55.041Z,7.65
2022-09-30T18:50:23.878Z,7.43
2022-09-30T18:52:52.741Z,6.63
2022-09-30T18:55:20.983Z,5.93
2022-09-30T18:57:56.417Z,6.53
2022-09-30T19:00:24.358Z,6.47
2022-09-30T19:02:52.932Z,6.40
2022-09-30T19:05:21.318Z,6.30
2022-09-30T19:07:49.376Z,7.25
2022-09-30T19:10:16.942Z,7.13
2022-09-30T19:12:47.373Z,7.32
2022-09-30T19:15:16.409Z,6.57
2022-09-30T19:17:44.752Z,7.38
2022-09-30T19:20:14.641Z,6.85
2022-09-30T19:22:42.473Z,7.45
2022-09-30T19:25:11.979Z,6.72
2022-09-30T19:27:41.152Z,6.15
2022-09-30T19:30:10.082Z,6.57
2022-09-30T19:32:37.568Z,6.90
2022-09-30T19:35:06.864Z,7.18
2022-09-30T19:37:35.405Z,6.60
2022-09-30T19:40:17.591Z,6.35
2022-09-30T19:45:17.008Z,5.95
2022-09-30T19:47:46.029Z,6.28
2022-09-30T19:50:13.455Z,6.20
2022-09-30T19:52:53.474Z,6.65
2022-09-30T19:55:24.075Z,6.75
2022-09-30T19:57:51.768Z,6.15
2022-09-30T20:00:20.059Z,6.68
2022-09-30T20:02:47.446Z,6.38
2022-09-30T20:05:15.027Z,5.88
2022-09-30T20:07:42.437Z,5.68
2022-09-30T20:10:10.133Z,6.05
2022-09-30T20:12:37.553Z,5.85
2022-09-30T20:15:23.935Z,6.30
2022-09-30T20:17:51.340Z,5.93
2022-09-30T20:20:37.429Z,6.18
2022-09-30T20:23:05.009Z,7.03
2022-09-30T20:25:32.436Z,5.88
2022-09-30T20:28:00.041Z,5.95
2022-09-30T20:30:30.034Z,6.15
2022-09-30T20:32:57.475Z,5.90
2022-09-30T20:35:25.258Z,5.88
2022-09-30T20:37:54.139Z,6.20
2022-09-30T20:40:21.832Z,6.50
2022-09-30T20:42:49.251Z,6.90
2022-09-30T20:45:18.327Z,5.80
2022-09-30T20:47:47.228Z,5.85
2022-09-30T20:50:14.638Z,6.18
2022-09-30T20:52:42.230Z,6.03
2022-09-30T20:55:10.605Z,6.47
2022-09-30T20:57:38.381Z,6.18
2022-09-30T21:00:06.284Z,6.18
2022-09-30T21:02:33.756Z,6.38
2022-09-30T21:05:03.645Z,6.32
2022-09-30T21:07:31.375Z,6.18
2022-09-30T21:10:01.662Z,6.60
2022-09-30T21:12:31.588Z,6.53
2022-09-30T21:15:01.594Z,6.72
2022-09-30T21:17:28.990Z,5.90
2022-09-30T21:19:56.349Z,6.72
2022-09-30T21:22:23.879Z,7.10
2022-09-30T21:24:51.186Z,5.97
2022-09-30T21:27:19.075Z,6.43
2022-09-30T21:29:46.481Z,5.80
2022-09-30T21:32:14.198Z,5.72
2022-09-30T21:34:41.850Z,7.03
2022-09-30T21:37:09.248Z,6.60
2022-09-30T21:39:36.621Z,6.20
2022-09-30T21:42:04.749Z,6.18
2022-09-30T21:44:32.228Z,6.35
2022-09-30T21:46:59.605Z,6.07
2022-09-30T21:49:26.919Z,6.32
2022-09-30T21:51:54.601Z,6.28
2022-09-30T21:54:23.521Z,5.78
2022-09-30T21:56:51.628Z,6.47
2022-09-30T21:59:19.127Z,6.05
2022-09-30T22:01:46.720Z,6.22
2022-09-30T22:04:14.101Z,6.40
2022-09-30T22:06:41.468Z,5.50
2022-09-30T22:09:08.910Z,7.13
2022-09-30T22:11:37.140Z,6.18
2022-09-30T22:14:04.923Z,5.68
2022-09-30T22:16:37.181Z,5.32
2022-09-30T22:19:05.546Z,6.10
2022-09-30T22:21:34.472Z,6.47
2022-09-30T22:24:03.152Z,5.80
2022-09-30T22:26:32.091Z,5.88
2022-09-30T22:29:01.035Z,6.00
2022-09-30T22:31:29.563Z,7.03
2022-09-30T22:34:16.929Z,6.40
2022-09-30T22:37:03.238Z,6.68
2022-09-30T22:39:30.933Z,5.88
2022-09-30T22:41:59.238Z,6.30
2022-09-30T22:44:28.358Z,6.43
2022-09-30T22:46:57.742Z,6.43
2022-09-30T22:49:25.472Z,5.95
2022-09-30T22:51:53.493Z,5.78
2022-09-30T22:54:21.021Z,5.60
2022-09-30T22:56:50.571Z,5.20
2022-09-30T22:59:18.654Z,5.38
2022-09-30T23:01:46.521Z,5.55
2022-09-30T23:04:17.568Z,5.13
2022-09-30T23:06:46.053Z,5.15
2022-09-30T23:09:13.396Z,5.38
2022-09-30T23:11:42.605Z,4.82
2022-09-30T23:14:10.094Z,5.03
2022-09-30T23:16:37.590Z,4.85
2022-09-30T23:19:05.307Z,5.30
2022-09-30T23:21:34.051Z,5.18
2022-09-30T23:24:02.256Z,4.78
2022-09-30T23:26:31.390Z,5.53
2022-09-30T23:28:59.571Z,4.55
2022-09-30T23:31:27.569Z,5.03
2022-09-30T23:34:06.441Z,4.57
2022-09-30T23:36:37.567Z,4.80
2022-09-30T23:39:19.820Z,5.05
2022-09-30T23:41:48.305Z,4.55
2022-09-30T23:44:19.274Z,4.03
2022-09-30T23:47:05.712Z,4.22
2022-09-30T23:49:35.654Z,4.80
2022-09-30T23:52:10.461Z,4.80
2022-09-30T23:54:44.947Z,4.07
2022-09-30T23:57:12.733Z,4.30
2022-09-30T23:59:43.796Z,4.03
